Time;durP1;ratioP1;P1;durP2;ratioP2;P2;SDS_P1;SDS_P2;PMS_P1;PMS_P2;Temp;Humidity;BMP_temperature;BMP_pressure;BME280_temperature;BME280_humidity;BME280_pressure;Samples;Min_cycle;Max_cycle;Signal;HPM_P1;HPM_P2
2022/06/17 00:01:47;;;;;;;16.67;4.57;;;;;;;;;;5052119;28;20021;-73
2022/06/17 00:04:13;;;;;;;12.90;4.45;;;;;;;;;;5052415;28;20028;-73
2022/06/17 00:06:53;;;;;;;11.73;4.20;;;;;;;;;;5052120;28;20033;-73
2022/06/17 00:09:20;;;;;;;13.20;4.43;;;;;;;;;;5052123;28;20320;-73
2022/06/17 00:11:46;;;;;;;9.45;4.53;;;;;;;;;;5052128;28;20437;-73
2022/06/17 00:14:14;;;;;;;11.52;4.22;;;;;;;;;;5052075;28;20023;-73
2022/06/17 00:16:40;;;;;;;11.32;4.03;;;;;;;;;;5051984;28;20479;-74
2022/06/17 00:19:06;;;;;;;9.20;4.18;;;;;;;;;;5051704;28;20025;-73
2022/06/17 00:21:38;;;;;;;10.00;4.10;;;;;;;;;;5050588;28;20387;-73
2022/06/17 00:24:13;;;;;;;9.80;4.20;;;;;;;;;;5051916;28;20341;-73
2022/06/17 00:26:39;;;;;;;10.07;4.32;;;;;;;;;;5051812;28;20029;-74
2022/06/17 00:29:05;;;;;;;13.27;4.40;;;;;;;;;;5051933;28;20099;-73
2022/06/17 00:31:31;;;;;;;5.60;3.83;;;;;;;;;;5047448;28;20570;-73
2022/06/17 00:33:57;;;;;;;10.70;4.22;;;;;;;;;;5051822;28;20119;-73
2022/06/17 00:36:23;;;;;;;7.93;3.80;;;;;;;;;;5051874;28;20100;-73
2022/06/17 00:38:50;;;;;;;9.50;3.80;;;;;;;;;;5051730;28;20109;-73
2022/06/17 00:41:36;;;;;;;10.13;3.85;;;;;;;;;;5051617;28;20537;-73
2022/06/17 00:44:09;;;;;;;13.18;4.30;;;;;;;;;;5051551;28;20037;-73
2022/06/17 00:46:41;;;;;;;9.00;3.88;;;;;;;;;;5051699;28;20021;-73
2022/06/17 00:49:11;;;;;;;11.60;4.15;;;;;;;;;;5051661;28;20033;-73
2022/06/17 00:51:46;;;;;;;15.13;4.13;;;;;;;;;;5051474;28;20499;-73
2022/06/17 00:54:18;;;;;;;5.80;4.03;;;;;;;;;;5051649;28;20037;-73
2022/06/17 00:56:43;;;;;;;9.05;4.50;;;;;;;;;;5051589;28;20040;-73
2022/06/17 00:59:13;;;;;;;7.20;4.00;;;;;;;;;;5051601;28;20037;-73
2022/06/17 01:01:46;;;;;;;11.60;4.18;;;;;;;;;;5051453;28;20025;-73
2022/06/17 01:04:15;;;;;;;8.60;4.00;;;;;;;;;;5051751;28;20451;-73
2022/06/17 01:06:43;;;;;;;6.18;4.07;;;;;;;;;;5033952;28;20037;-73
2022/06/17 01:12:02;;;;;;;10.15;4.30;;;;;;;;;;5031887;28;20056;-73
2022/06/17 01:14:29;;;;;;;12.25;4.00;;;;;;;;;;5031521;28;20029;-73
2022/06/17 01:16:56;;;;;;;8.02;4.10;;;;;;;;;;5031501;28;20022;-73
2022/06/17 01:19:22;;;;;;;7.03;4.20;;;;;;;;;;5031484;28;20035;-73
2022/06/17 01:21:54;;;;;;;10.15;3.88;;;;;;;;;;5031468;28;20034;-73
2022/06/17 01:24:20;;;;;;;11.32;3.90;;;;;;;;;;5031272;28;20096;-73
2022/06/17 01:26:46;;;;;;;7.47;3.85;;;;;;;;;;5031392;28;20025;-74
2022/06/17 01:29:16;;;;;;;7.97;3.75;;;;;;;;;;5031398;28;20132;-73
2022/06/17 01:31:47;;;;;;;6.60;3.95;;;;;;;;;;5045355;28;20021;-73
2022/06/17 01:34:13;;;;;;;8.05;4.32;;;;;;;;;;5054951;28;20025;-73
2022/06/17 01:36:40;;;;;;;8.13;4.60;;;;;;;;;;5055135;28;20021;-73
2022/06/17 01:39:07;;;;;;;7.93;4.30;;;;;;;;;;5054858;28;20033;-73
2022/06/17 01:41:34;;;;;;;7.78;4.15;;;;;;;;;;5054783;28;20021;-73
2022/06/17 01:44:33;;;;;;;8.15;3.95;;;;;;;;;;5054764;28;20067;-73
2022/06/17 01:47:00;;;;;;;7.20;3.83;;;;;;;;;;5012679;28;20042;-73
2022/06/17 01:49:45;;;;;;;7.60;4.65;;;;;;;;;;5012755;28;20532;-74
2022/06/17 01:52:20;;;;;;;5.90;3.88;;;;;;;;;;5012418;28;20054;-74
2022/06/17 01:54:49;;;;;;;10.02;4.13;;;;;;;;;;5012580;28;20540;-73
2022/06/17 01:57:19;;;;;;;5.65;3.83;;;;;;;;;;5012520;28;20042;-73
2022/06/17 01:59:52;;;;;;;9.40;4.30;;;;;;;;;;5012561;28;20052;-74
2022/06/17 02:02:18;;;;;;;7.45;3.72;;;;;;;;;;5012440;28;20253;-73
2022/06/17 02:04:47;;;;;;;7.43;3.70;;;;;;;;;;5012162;28;20184;-74
2022/06/17 02:07:16;;;;;;;8.70;4.30;;;;;;;;;;5012545;28;20104;-74
2022/06/17 02:09:43;;;;;;;11.23;4.03;;;;;;;;;;5012215;28;20121;-74
2022/06/17 02:12:09;;;;;;;16.25;5.25;;;;;;;;;;5012297;28;20037;-74
2022/06/17 02:14:35;;;;;;;9.15;4.00;;;;;;;;;;5012310;28;20037;-74
2022/06/17 02:17:02;;;;;;;7.95;5.03;;;;;;;;;;5012220;28;20564;-74
2022/06/17 02:19:31;;;;;;;9.07;4.80;;;;;;;;;;5012293;28;20029;-74
2022/06/17 02:22:00;;;;;;;10.63;4.18;;;;;;;;;;5012149;28;20081;-73
2022/06/17 02:24:26;;;;;;;8.60;4.13;;;;;;;;;;5052677;28;20040;-73
2022/06/17 02:26:53;;;;;;;10.18;3.70;;;;;;;;;;5054042;28;20025;-73
2022/06/17 02:29:19;;;;;;;8.77;4.13;;;;;;;;;;5054023;28;20735;-74
2022/06/17 02:31:45;;;;;;;7.13;4.18;;;;;;;;;;5053720;28;20030;-73
2022/06/17 02:34:13;;;;;;;7.72;4.05;;;;;;;;;;5053939;28;20112;-73
2022/06/17 02:36:39;;;;;;;6.78;3.88;;;;;;;;;;5053809;28;20025;-73
2022/06/17 02:39:05;;;;;;;9.13;4.22;;;;;;;;;;5053824;28;20387;-73
2022/06/17 02:41:32;;;;;;;11.25;4.50;;;;;;;;;;5053733;28;20040;-73
2022/06/17 02:44:19;;;;;;;6.32;4.00;;;;;;;;;;5053559;28;20033;-74
2022/06/17 02:46:46;;;;;;;6.65;3.67;;;;;;;;;;5053636;28;20063;-74
2022/06/17 02:49:18;;;;;;;9.75;4.03;;;;;;;;;;5053651;28;20382;-74
2022/06/17 02:51:45;;;;;;;10.18;4.20;;;;;;;;;;5053431;28;20041;-74
2022/06/17 02:54:15;;;;;;;10.07;4.38;;;;;;;;;;5053595;28;20039;-74
2022/06/17 02:56:44;;;;;;;7.40;3.95;;;;;;;;;;5053492;28;20021;-73
2022/06/17 02:59:16;;;;;;;8.50;4.75;;;;;;;;;;5053416;28;20036;-73
2022/06/17 03:01:42;;;;;;;7.38;4.53;;;;;;;;;;5053232;28;20048;-73
2022/06/17 03:04:22;;;;;;;7.07;4.57;;;;;;;;;;5053451;28;20162;-73
2022/06/17 03:06:50;;;;;;;9.30;4.88;;;;;;;;;;5053233;28;20037;-73
2022/06/17 03:09:16;;;;;;;7.95;4.40;;;;;;;;;;5053295;28;20087;-74
2022/06/17 03:11:43;;;;;;;7.88;4.85;;;;;;;;;;5053164;28;20021;-74
2022/06/17 03:14:12;;;;;;;8.65;4.53;;;;;;;;;;5053111;28;20033;-73
2022/06/17 03:16:38;;;;;;;10.73;4.75;;;;;;;;;;5053147;28;20541;-73
2022/06/17 03:19:04;;;;;;;8.00;4.93;;;;;;;;;;5053029;28;20551;-73
2022/06/17 03:21:30;;;;;;;8.02;4.50;;;;;;;;;;5053045;28;20387;-74
2022/06/17 03:24:00;;;;;;;8.25;4.50;;;;;;;;;;5052747;28;20487;-73
2022/06/17 03:26:28;;;;;;;6.80;4.20;;;;;;;;;;5052926;28;20052;-73
2022/06/17 03:28:55;;;;;;;9.18;4.20;;;;;;;;;;5052869;28;20502;-73
2022/06/17 03:31:24;;;;;;;6.93;4.38;;;;;;;;;;5052550;28;20110;-74
2022/06/17 03:33:59;;;;;;;7.72;4.90;;;;;;;;;;5052776;28;20364;-74
2022/06/17 03:36:32;;;;;;;7.88;4.47;;;;;;;;;;5052750;28;20037;-74
2022/06/17 03:38:59;;;;;;;8.13;4.05;;;;;;;;;;5051228;28;20041;-74
2022/06/17 03:41:34;;;;;;;9.60;4.07;;;;;;;;;;5052587;28;20025;-74
2022/06/17 03:44:04;;;;;;;8.98;4.10;;;;;;;;;;5052318;28;20020;-73
2022/06/17 03:46:32;;;;;;;7.70;4.25;;;;;;;;;;5052543;28;20483;-74
2022/06/17 03:49:12;;;;;;;8.18;4.40;;;;;;;;;;5052449;28;20227;-73
2022/06/17 03:51:40;;;;;;;10.45;4.55;;;;;;;;;;5052119;28;20187;-73
2022/06/17 03:54:06;;;;;;;12.90;4.43;;;;;;;;;;5051755;28;20025;-74
2022/06/17 03:56:34;;;;;;;8.07;4.22;;;;;;;;;;5052261;28;20025;-73
2022/06/17 03:59:03;;;;;;;6.78;4.50;;;;;;;;;;5052184;28;20108;-73
2022/06/17 04:01:33;;;;;;;5.45;3.95;;;;;;;;;;5052059;28;20024;-74
2022/06/17 04:04:01;;;;;;;8.20;4.32;;;;;;;;;;5052323;28;20357;-74
2022/06/17 04:06:34;;;;;;;9.85;4.40;;;;;;;;;;5052162;28;20099;-74
2022/06/17 04:09:02;;;;;;;15.27;4.07;;;;;;;;;;5052095;28;20029;-74
2022/06/17 04:11:30;;;;;;;10.68;4.30;;;;;;;;;;5052087;28;20065;-74
2022/06/17 04:13:58;;;;;;;6.65;4.18;;;;;;;;;;5052043;28;20036;-74
2022/06/17 04:16:52;;;;;;;8.25;4.55;;;;;;;;;;5052014;28;20021;-74
2022/06/17 04:19:21;;;;;;;9.05;4.68;;;;;;;;;;4990260;28;20066;-74
2022/06/17 04:21:48;;;;;;;6.40;4.43;;;;;;;;;;4990433;28;20034;-74
2022/06/17 04:24:16;;;;;;;8.52;4.97;;;;;;;;;;4990281;28;20042;-73
2022/06/17 04:26:43;;;;;;;18.48;4.70;;;;;;;;;;4990416;28;20045;-73
2022/06/17 04:29:17;;;;;;;15.23;4.97;;;;;;;;;;4990180;28;20048;-74
2022/06/17 04:31:43;;;;;;;14.75;5.13;;;;;;;;;;4989897;28;20035;-73
2022/06/17 04:34:17;;;;;;;11.50;4.68;;;;;;;;;;4990239;28;20035;-73
2022/06/17 04:36:51;;;;;;;13.82;4.78;;;;;;;;;;4974003;28;20053;-73
2022/06/17 04:39:21;;;;;;;8.63;4.70;;;;;;;;;;4990110;28;20063;-73
2022/06/17 04:41:49;;;;;;;10.32;5.03;;;;;;;;;;4990169;28;20027;-74
2022/06/17 04:44:15;;;;;;;9.20;5.20;;;;;;;;;;4990053;28;20556;-73
2022/06/17 04:46:53;;;;;;;11.68;4.88;;;;;;;;;;4990038;28;20031;-73
2022/06/17 04:49:21;;;;;;;13.35;5.30;;;;;;;;;;4990086;28;20038;-73
2022/06/17 04:51:48;;;;;;;10.80;6.07;;;;;;;;;;4989864;28;20042;-73
2022/06/17 04:54:15;;;;;;;11.35;5.30;;;;;;;;;;4990030;28;20034;-73
2022/06/17 04:56:45;;;;;;;12.75;5.30;;;;;;;;;;5036163;28;20383;-73
2022/06/17 04:59:23;;;;;;;9.48;4.88;;;;;;;;;;5051465;28;20025;-74
2022/06/17 05:01:50;;;;;;;10.18;5.00;;;;;;;;;;5051308;28;20032;-74
2022/06/17 05:04:17;;;;;;;12.77;5.03;;;;;;;;;;5051487;28;20463;-73
2022/06/17 05:06:43;;;;;;;10.25;4.95;;;;;;;;;;5035112;28;20030;-74
2022/06/17 05:09:20;;;;;;;10.77;4.72;;;;;;;;;;5035486;28;20038;-74
2022/06/17 05:11:48;;;;;;;9.30;4.68;;;;;;;;;;5035500;28;20064;-74
2022/06/17 05:14:17;;;;;;;6.90;5.20;;;;;;;;;;5035406;28;20025;-74
2022/06/17 05:16:43;;;;;;;6.88;4.70;;;;;;;;;;5033968;28;20369;-74
2022/06/17 05:19:09;;;;;;;8.32;5.10;;;;;;;;;;5035345;28;20408;-74
2022/06/17 05:21:35;;;;;;;9.35;4.80;;;;;;;;;;5035260;28;20030;-74
2022/06/17 05:24:02;;;;;;;10.18;4.70;;;;;;;;;;5033789;28;20116;-74
2022/06/17 05:26:28;;;;;;;8.88;4.88;;;;;;;;;;5035147;28;20023;-74
2022/06/17 05:28:54;;;;;;;8.15;4.70;;;;;;;;;;5035098;28;20115;-74
2022/06/17 05:31:22;;;;;;;8.23;4.80;;;;;;;;;;5044767;28;20378;-74
2022/06/17 05:33:48;;;;;;;9.27;4.40;;;;;;;;;;5055016;28;20044;-74
2022/06/17 05:36:14;;;;;;;7.93;3.92;;;;;;;;;;5054984;28;20036;-74
2022/06/17 05:38:41;;;;;;;8.82;4.10;;;;;;;;;;5054958;28;20035;-74
2022/06/17 05:41:07;;;;;;;9.52;4.00;;;;;;;;;;5054779;28;20383;-74
2022/06/17 05:43:34;;;;;;;7.10;4.40;;;;;;;;;;5054696;28;20033;-74
2022/06/17 05:46:00;;;;;;;11.25;4.45;;;;;;;;;;5054740;28;20440;-74
2022/06/17 05:48:26;;;;;;;8.52;4.50;;;;;;;;;;5054781;28;20025;-74
2022/06/17 05:50:52;;;;;;;11.00;4.50;;;;;;;;;;5054644;28;20079;-74
2022/06/17 05:53:18;;;;;;;6.93;3.97;;;;;;;;;;5054468;28;20505;-74
2022/06/17 05:55:45;;;;;;;9.90;4.10;;;;;;;;;;5054588;28;20079;-74
2022/06/17 05:58:11;;;;;;;8.13;4.10;;;;;;;;;;5054498;28;20024;-74
2022/06/17 06:00:37;;;;;;;7.40;4.10;;;;;;;;;;5054466;28;20048;-74
2022/06/17 06:03:04;;;;;;;9.98;3.58;;;;;;;;;;5054233;28;20028;-74
2022/06/17 06:05:32;;;;;;;9.15;3.78;;;;;;;;;;5046468;28;20108;-74
2022/06/17 06:07:58;;;;;;;8.23;4.30;;;;;;;;;;5034675;28;20052;-74
2022/06/17 06:10:25;;;;;;;7.53;3.90;;;;;;;;;;5034275;28;20375;-74
2022/06/17 06:12:53;;;;;;;8.73;3.33;;;;;;;;;;5034350;28;20017;-74
2022/06/17 06:15:23;;;;;;;6.50;3.90;;;;;;;;;;5034246;28;20059;-74
2022/06/17 06:17:49;;;;;;;13.02;4.63;;;;;;;;;;5033667;28;20180;-74
2022/06/17 06:20:16;;;;;;;11.25;3.97;;;;;;;;;;5034304;28;20112;-74
2022/06/17 06:22:42;;;;;;;8.52;4.20;;;;;;;;;;5034155;28;20056;-74
2022/06/17 06:25:11;;;;;;;7.00;3.83;;;;;;;;;;5034088;28;20032;-74
2022/06/17 06:27:37;;;;;;;12.73;3.60;;;;;;;;;;5034100;28;20372;-74
2022/06/17 06:30:03;;;;;;;14.07;3.67;;;;;;;;;;5033974;28;20021;-74
2022/06/17 06:32:29;;;;;;;7.47;3.30;;;;;;;;;;5053130;28;20139;-74
2022/06/17 06:34:55;;;;;;;10.77;3.75;;;;;;;;;;5053802;28;20033;-74
2022/06/17 06:37:21;;;;;;;10.00;3.50;;;;;;;;;;5053823;28;20033;-74
2022/06/17 06:39:47;;;;;;;10.52;3.55;;;;;;;;;;5053852;28;20033;-74
2022/06/17 06:42:14;;;;;;;14.20;3.45;;;;;;;;;;5053682;28;20534;-74
2022/06/17 06:44:41;;;;;;;8.75;3.33;;;;;;;;;;5053480;28;20037;-74
2022/06/17 06:47:08;;;;;;;7.90;3.38;;;;;;;;;;5053727;28;20427;-74
2022/06/17 06:49:34;;;;;;;6.40;3.30;;;;;;;;;;5053410;28;20032;-74
2022/06/17 06:52:00;;;;;;;11.93;3.35;;;;;;;;;;5053304;28;20375;-74
2022/06/17 06:54:26;;;;;;;5.43;3.05;;;;;;;;;;5053525;28;20620;-74
2022/06/17 06:56:54;;;;;;;6.93;3.50;;;;;;;;;;5053428;28;20036;-74
2022/06/17 06:59:20;;;;;;;6.05;3.15;;;;;;;;;;5053470;28;20140;-74
2022/06/17 07:01:46;;;;;;;7.75;3.78;;;;;;;;;;5053100;28;20112;-75
2022/06/17 07:04:13;;;;;;;10.13;3.53;;;;;;;;;;5053565;28;20033;-74
2022/06/17 07:06:39;;;;;;;7.68;3.50;;;;;;;;;;5053266;28;20017;-74
2022/06/17 07:09:06;;;;;;;7.20;3.30;;;;;;;;;;5053218;28;20033;-76
2022/06/17 07:11:34;;;;;;;10.00;2.83;;;;;;;;;;5053160;28;20023;-75
2022/06/17 07:14:00;;;;;;;6.10;3.00;;;;;;;;;;5053098;28;20029;-75
2022/06/17 07:16:26;;;;;;;6.45;2.53;;;;;;;;;;5053130;28;20405;-75
2022/06/17 07:18:52;;;;;;;8.45;3.15;;;;;;;;;;5053085;28;20020;-74
2022/06/17 07:21:18;;;;;;;6.40;3.30;;;;;;;;;;5051463;28;20446;-74
2022/06/17 07:23:45;;;;;;;9.00;3.00;;;;;;;;;;5052894;28;20020;-74
2022/06/17 07:26:16;;;;;;;7.90;2.75;;;;;;;;;;5052906;28;20033;-74
2022/06/17 07:28:42;;;;;;;6.82;2.83;;;;;;;;;;5052069;28;20104;-74
2022/06/17 07:31:08;;;;;;;6.88;2.95;;;;;;;;;;5048432;28;20029;-74
2022/06/17 07:33:35;;;;;;;6.75;2.63;;;;;;;;;;5052774;28;20075;-74
2022/06/17 07:36:02;;;;;;;8.15;3.17;;;;;;;;;;5052779;28;20021;-74
2022/06/17 07:41:16;;;;;;;7.38;2.97;;;;;;;;;;5052740;28;20036;-74
2022/06/17 07:43:43;;;;;;;9.90;3.17;;;;;;;;;;5052516;28;20017;-74
2022/06/17 07:46:10;;;;;;;10.93;3.28;;;;;;;;;;5052442;28;20033;-74
2022/06/17 07:48:38;;;;;;;8.15;3.50;;;;;;;;;;5052478;28;20020;-73
2022/06/17 07:51:05;;;;;;;6.47;3.17;;;;;;;;;;5052542;28;20052;-74
2022/06/17 07:53:34;;;;;;;9.38;3.80;;;;;;;;;;5052186;28;20132;-74
2022/06/17 07:56:00;;;;;;;7.57;3.60;;;;;;;;;;5052410;28;20036;-74
2022/06/17 07:58:26;;;;;;;10.77;3.25;;;;;;;;;;5052489;28;20025;-74
2022/06/17 08:00:53;;;;;;;8.25;3.30;;;;;;;;;;5052116;28;20032;-74
2022/06/17 08:03:20;;;;;;;7.85;3.50;;;;;;;;;;5052386;28;20163;-74
2022/06/17 08:05:47;;;;;;;9.88;3.35;;;;;;;;;;5052076;28;20025;-74
2022/06/17 08:08:21;;;;;;;6.70;2.83;;;;;;;;;;5052290;28;20055;-74
2022/06/17 08:10:47;;;;;;;7.22;3.45;;;;;;;;;;5052442;28;20687;-73
2022/06/17 08:13:13;;;;;;;7.15;3.50;;;;;;;;;;5052499;28;20113;-73
2022/06/17 08:15:39;;;;;;;6.68;2.92;;;;;;;;;;5051186;28;20087;-74
2022/06/17 08:18:05;;;;;;;4.10;3.03;;;;;;;;;;5052690;28;20033;-73
2022/06/17 08:20:33;;;;;;;9.65;3.08;;;;;;;;;;5052391;28;20551;-74
2022/06/17 08:22:59;;;;;;;9.35;3.00;;;;;;;;;;5052568;28;20476;-74
2022/06/17 08:25:25;;;;;;;3.28;2.50;;;;;;;;;;5052273;28;20104;-74
2022/06/17 08:27:54;;;;;;;5.03;2.85;;;;;;;;;;5052527;28;20379;-74
2022/06/17 08:30:22;;;;;;;6.40;3.33;;;;;;;;;;5051911;28;20025;-74
2022/06/17 08:32:50;;;;;;;7.93;3.17;;;;;;;;;;5051607;28;20033;-74
2022/06/17 08:35:20;;;;;;;7.95;3.15;;;;;;;;;;5051932;28;20035;-74
2022/06/17 08:37:47;;;;;;;5.68;2.63;;;;;;;;;;5051921;28;20033;-74
2022/06/17 08:40:22;;;;;;;4.95;2.83;;;;;;;;;;5051430;28;20056;-74
2022/06/17 08:42:54;;;;;;;5.57;2.92;;;;;;;;;;5051770;28;20055;-74
2022/06/17 08:45:23;;;;;;;10.32;2.90;;;;;;;;;;5051511;28;20021;-74
2022/06/17 08:47:59;;;;;;;7.82;2.70;;;;;;;;;;5051679;28;20049;-74
2022/06/17 08:50:28;;;;;;;5.22;2.83;;;;;;;;;;5051674;28;20475;-74
2022/06/17 08:52:54;;;;;;;7.47;3.42;;;;;;;;;;5051321;28;20055;-74
2022/06/17 08:55:28;;;;;;;6.50;3.00;;;;;;;;;;5051630;28;20029;-74
2022/06/17 08:57:57;;;;;;;7.05;3.00;;;;;;;;;;5051609;28;20059;-74
2022/06/17 09:00:34;;;;;;;10.60;3.80;;;;;;;;;;5051392;28;20037;-74
2022/06/17 09:03:06;;;;;;;7.35;3.00;;;;;;;;;;5051435;28;20078;-73
2022/06/17 09:05:41;;;;;;;7.95;3.40;;;;;;;;;;5051257;28;20025;-74
2022/06/17 09:08:24;;;;;;;8.45;3.80;;;;;;;;;;5051664;28;20044;-74
2022/06/17 09:11:03;;;;;;;9.50;3.60;;;;;;;;;;5051442;28;20071;-74
2022/06/17 09:13:41;;;;;;;7.80;3.42;;;;;;;;;;5051348;28;20467;-74
2022/06/17 09:16:07;;;;;;;9.60;3.47;;;;;;;;;;5051296;28;20065;-74
2022/06/17 09:18:48;;;;;;;6.00;3.20;;;;;;;;;;5051317;28;20040;-74
2022/06/17 09:21:16;;;;;;;5.50;2.85;;;;;;;;;;5051481;28;20067;-74
2022/06/17 09:23:43;;;;;;;10.23;2.30;;;;;;;;;;5051250;28;20013;-74
2022/06/17 09:26:19;;;;;;;5.68;2.58;;;;;;;;;;5051363;28;20086;-74
2022/06/17 09:28:49;;;;;;;4.80;2.38;;;;;;;;;;5051342;28;20475;-74
2022/06/17 09:31:17;;;;;;;6.85;2.45;;;;;;;;;;5046941;28;20128;-74
2022/06/17 09:33:49;;;;;;;6.15;2.60;;;;;;;;;;5051176;28;20028;-74
2022/06/17 09:36:18;;;;;;;10.82;2.50;;;;;;;;;;5051400;28;20068;-74
2022/06/17 09:38:51;;;;;;;5.63;2.35;;;;;;;;;;5049877;28;20103;-74
2022/06/17 09:41:17;;;;;;;3.75;1.98;;;;;;;;;;5051141;28;20029;-74
2022/06/17 09:44:03;;;;;;;4.60;2.15;;;;;;;;;;5050994;28;20079;-74
2022/06/17 09:46:39;;;;;;;9.95;2.67;;;;;;;;;;5051194;28;20040;-74
2022/06/17 09:49:08;;;;;;;6.68;2.40;;;;;;;;;;5051143;28;20025;-74
2022/06/17 09:51:38;;;;;;;8.38;2.38;;;;;;;;;;5050894;28;20025;-74
2022/06/17 09:54:27;;;;;;;7.47;2.03;;;;;;;;;;5054521;28;20438;-74
2022/06/17 09:57:02;;;;;;;4.53;2.50;;;;;;;;;;5012549;28;20042;-74
2022/06/17 09:59:33;;;;;;;4.50;2.33;;;;;;;;;;5012591;28;20046;-74
2022/06/17 10:01:59;;;;;;;9.13;2.60;;;;;;;;;;5012399;28;20054;-74
2022/06/17 10:04:25;;;;;;;5.20;2.38;;;;;;;;;;5012278;28;20049;-74
2022/06/17 10:06:54;;;;;;;8.18;2.92;;;;;;;;;;5012359;28;20026;-74
2022/06/17 10:09:27;;;;;;;7.45;2.80;;;;;;;;;;5012497;28;20033;-74
2022/06/17 10:12:00;;;;;;;12.00;3.58;;;;;;;;;;5012442;28;20030;-74
2022/06/17 10:14:37;;;;;;;8.68;2.72;;;;;;;;;;5012335;28;20046;-74
2022/06/17 10:19:50;;;;;;;13.63;3.35;;;;;;;;;;5011964;28;20104;-74
2022/06/17 10:22:25;;;;;;;5.47;2.38;;;;;;;;;;5012293;28;20036;-74
2022/06/17 10:25:05;;;;;;;6.15;1.90;;;;;;;;;;5012136;28;20034;-74
2022/06/17 10:27:37;;;;;;;5.30;2.03;;;;;;;;;;5011983;28;20042;-74
2022/06/17 10:30:03;;;;;;;;;;;;;;;;;;5012496;28;20185;-74
2022/06/17 10:32:32;;;;;;;7.10;2.28;;;;;;;;;;5011747;28;19996;-74
2022/06/17 10:34:59;;;;;;;4.90;2.38;;;;;;;;;;5051954;28;20116;-74
2022/06/17 10:37:29;;;;;;;11.45;2.10;;;;;;;;;;5053997;28;20033;-74
2022/06/17 10:39:56;;;;;;;5.13;3.00;;;;;;;;;;5053839;28;20060;-75
2022/06/17 10:42:24;;;;;;;4.90;2.70;;;;;;;;;;5053764;28;20052;-74
2022/06/17 10:44:51;;;;;;;8.02;2.47;;;;;;;;;;5053809;28;20033;-74
2022/06/17 10:47:29;;;;;;;10.00;2.67;;;;;;;;;;5053618;28;20021;-74
2022/06/17 10:50:07;;;;;;;5.90;2.47;;;;;;;;;;5053596;28;20078;-74
2022/06/17 10:52:37;;;;;;;5.45;2.58;;;;;;;;;;5053395;28;20041;-74
2022/06/17 10:55:05;;;;;;;5.17;1.93;;;;;;;;;;5053660;28;20076;-74
2022/06/17 10:57:37;;;;;;;4.90;2.25;;;;;;;;;;5053571;28;20123;-74
2022/06/17 11:00:24;;;;;;;5.63;2.50;;;;;;;;;;5053582;28;20046;-74
2022/06/17 11:02:50;;;;;;;8.90;2.42;;;;;;;;;;5053102;28;20099;-74
2022/06/17 11:05:28;;;;;;;5.40;2.35;;;;;;;;;;5053182;28;20025;-74
2022/06/17 11:07:54;;;;;;;8.32;2.30;;;;;;;;;;5053509;28;20021;-74
2022/06/17 11:10:24;;;;;;;7.45;2.08;;;;;;;;;;5053399;28;20483;-74
2022/06/17 11:12:52;;;;;;;9.65;2.30;;;;;;;;;;5053268;28;20040;-74
2022/06/17 11:15:29;;;;;;;7.53;2.42;;;;;;;;;;5053234;28;20080;-75
2022/06/17 11:17:59;;;;;;;7.38;2.08;;;;;;;;;;5053145;28;20033;-74
2022/06/17 11:20:30;;;;;;;7.22;2.50;;;;;;;;;;5053148;28;20036;-75
2022/06/17 11:23:03;;;;;;;4.63;2.28;;;;;;;;;;5053155;28;20472;-75
2022/06/17 11:25:33;;;;;;;3.88;1.95;;;;;;;;;;5051498;28;20033;-76
2022/06/17 11:28:18;;;;;;;4.88;1.83;;;;;;;;;;5052966;28;20044;-75
2022/06/17 11:31:10;;;;;;;4.72;1.85;;;;;;;;;;5048544;28;20669;-75
2022/06/17 11:33:41;;;;;;;4.32;1.88;;;;;;;;;;5036362;28;20041;-75
2022/06/17 11:36:13;;;;;;;5.25;1.95;;;;;;;;;;5052971;28;20028;-75
2022/06/17 11:38:40;;;;;;;4.57;2.50;;;;;;;;;;5052710;28;20040;-74
2022/06/17 11:41:06;;;;;;;7.32;2.20;;;;;;;;;;5052709;28;20025;-75
2022/06/17 11:43:35;;;;;;;3.50;1.92;;;;;;;;;;5052626;28;20032;-74
2022/06/17 11:46:12;;;;;;;5.45;2.33;;;;;;;;;;5084457;28;20039;-73
2022/06/17 11:48:40;;;;;;;7.47;2.20;;;;;;;;;;5052470;28;20025;-75
2022/06/17 11:51:17;;;;;;;6.38;2.00;;;;;;;;;;5052574;28;20020;-75
2022/06/17 11:53:49;;;;;;;4.95;2.17;;;;;;;;;;5052240;28;20437;-75
2022/06/17 11:56:15;;;;;;;;;;;;;;;;;;5052840;28;20037;-75
2022/06/17 11:59:20;;;;;;;3.67;1.75;;;;;;;;;;5052416;28;20371;-75
2022/06/17 12:01:50;;;;;;;4.75;2.00;;;;;;;;;;5010250;28;20037;-75
2022/06/17 12:04:32;;;;;;;4.90;2.08;;;;;;;;;;5010278;28;20144;-74
2022/06/17 12:06:58;;;;;;;3.75;2.05;;;;;;;;;;5010247;28;20057;-75
2022/06/17 12:09:27;;;;;;;7.70;1.92;;;;;;;;;;5010309;28;20532;-75
2022/06/17 12:11:54;;;;;;;7.55;2.50;;;;;;;;;;5010222;28;20034;-74
2022/06/17 12:14:26;;;;;;;4.00;1.90;;;;;;;;;;5010089;28;20104;-75
2022/06/17 12:16:52;;;;;;;9.93;2.17;;;;;;;;;;5009874;28;20056;-75
2022/06/17 12:19:22;;;;;;;10.27;2.40;;;;;;;;;;5010225;28;20041;-74
2022/06/17 12:21:54;;;;;;;4.55;2.38;;;;;;;;;;5010176;28;20052;-75
2022/06/17 12:24:32;;;;;;;9.07;2.10;;;;;;;;;;5010046;28;20073;-74
2022/06/17 12:27:13;;;;;;;7.13;3.47;;;;;;;;;;5009957;28;20042;-76
2022/06/17 12:29:45;;;;;;;12.27;2.70;;;;;;;;;;5010038;28;20488;-75
2022/06/17 12:32:23;;;;;;;8.82;2.83;;;;;;;;;;5024738;28;20556;-76
2022/06/17 12:34:55;;;;;;;5.82;3.00;;;;;;;;;;5051847;28;20086;-73
2022/06/17 12:37:24;;;;;;;4.57;2.25;;;;;;;;;;5051875;28;20057;-74
2022/06/17 12:39:55;;;;;;;6.35;3.40;;;;;;;;;;5051564;28;20033;-75
2022/06/17 12:42:33;;;;;;;8.90;3.08;;;;;;;;;;5051737;28;20132;-75
2022/06/17 12:45:08;;;;;;;11.55;2.92;;;;;;;;;;5051628;28;20365;-75
2022/06/17 12:47:53;;;;;;;10.35;3.30;;;;;;;;;;5051653;28;20048;-75
2022/06/17 12:53:18;;;;;;;3.58;1.98;;;;;;;;;;5051682;28;20067;-75
2022/06/17 12:55:54;;;;;;;4.82;2.60;;;;;;;;;;5051694;28;20402;-75
2022/06/17 12:58:29;;;;;;;5.03;2.40;;;;;;;;;;5051719;28;20160;-75
2022/06/17 13:01:08;;;;;;;6.80;2.28;;;;;;;;;;5051363;28;20029;-75
2022/06/17 13:03:36;;;;;;;4.80;2.10;;;;;;;;;;5051702;28;20463;-75
2022/06/17 13:06:08;;;;;;;4.53;2.10;;;;;;;;;;5051401;28;20041;-75
2022/06/17 13:08:52;;;;;;;4.68;1.95;;;;;;;;;;5051542;28;20029;-76
2022/06/17 13:11:28;;;;;;;5.07;1.77;;;;;;;;;;5051457;28;20026;-76
2022/06/17 13:13:57;;;;;;;6.18;1.60;;;;;;;;;;5051520;28;20533;-75
2022/06/17 13:16:30;;;;;;;2.72;1.70;;;;;;;;;;5051325;28;20087;-75
2022/06/17 13:19:01;;;;;;;3.05;1.40;;;;;;;;;;5051512;28;20028;-75
2022/06/17 13:21:33;;;;;;;3.78;1.35;;;;;;;;;;5051864;28;20100;-75
2022/06/17 13:24:18;;;;;;;12.13;1.60;;;;;;;;;;5051282;28;20225;-76
2022/06/17 13:26:51;;;;;;;3.75;1.52;;;;;;;;;;5051345;28;20055;-75
2022/06/17 13:29:23;;;;;;;3.67;1.60;;;;;;;;;;5055255;28;20052;-75
2022/06/17 13:32:05;;;;;;;4.20;1.60;;;;;;;;;;5054883;28;20025;-75
2022/06/17 13:34:44;;;;;;;6.93;1.50;;;;;;;;;;5055170;28;20391;-75
2022/06/17 13:37:12;;;;;;;4.80;1.17;;;;;;;;;;5055150;28;20386;-75
2022/06/17 13:39:41;;;;;;;4.20;1.58;;;;;;;;;;5053606;28;20108;-75
2022/06/17 13:42:09;;;;;;;5.40;1.70;;;;;;;;;;5054975;28;20024;-75
2022/06/17 13:44:44;;;;;;;2.78;1.20;;;;;;;;;;5054948;28;20036;-75
2022/06/17 13:47:29;;;;;;;2.10;1.20;;;;;;;;;;5054784;28;20033;-75
2022/06/17 13:50:07;;;;;;;9.18;1.20;;;;;;;;;;5054909;28;20029;-75
2022/06/17 13:52:42;;;;;;;3.80;1.27;;;;;;;;;;5054644;28;20483;-75
2022/06/17 13:55:24;;;;;;;5.72;1.30;;;;;;;;;;5054795;28;20428;-75
2022/06/17 13:58:03;;;;;;;2.30;1.30;;;;;;;;;;5054772;28;20020;-75
2022/06/17 14:00:39;;;;;;;3.28;1.40;;;;;;;;;;5054695;28;20024;-75
2022/06/17 14:03:07;;;;;;;5.10;1.40;;;;;;;;;;5054607;28;20107;-75
2022/06/17 14:05:42;;;;;;;4.93;1.40;;;;;;;;;;5054381;28;20059;-75
2022/06/17 14:08:17;;;;;;;5.03;1.30;;;;;;;;;;5054653;28;20040;-75
2022/06/17 14:10:46;;;;;;;3.67;0.93;;;;;;;;;;5054522;28;20025;-75
2022/06/17 14:13:15;;;;;;;6.50;1.27;;;;;;;;;;5054442;28;20021;-75
2022/06/17 14:15:45;;;;;;;2.15;1.20;;;;;;;;;;5052976;28;20029;-75
2022/06/17 14:18:20;;;;;;;5.38;1.33;;;;;;;;;;5054352;28;20033;-75
2022/06/17 14:20:46;;;;;;;14.93;2.13;;;;;;;;;;5054338;28;20029;-75
2022/06/17 14:23:35;;;;;;;3.75;1.00;;;;;;;;;;5052968;28;20482;-74
2022/06/17 14:26:02;;;;;;;1.85;1.10;;;;;;;;;;5053997;28;20091;-75
2022/06/17 14:28:33;;;;;;;2.53;1.00;;;;;;;;;;5054151;28;20024;-76
2022/06/17 14:31:11;;;;;;;1.50;1.10;;;;;;;;;;5053899;28;20021;-74
2022/06/17 14:33:40;;;;;;;3.97;1.10;;;;;;;;;;5054142;28;20025;-74
2022/06/17 14:36:08;;;;;;;3.17;1.00;;;;;;;;;;5054121;28;20215;-74
2022/06/17 14:38:36;;;;;;;5.45;1.17;;;;;;;;;;5053599;28;20064;-74
2022/06/17 14:43:52;;;;;;;3.38;1.48;;;;;;;;;;5053632;28;20051;-74
2022/06/17 14:46:18;;;;;;;1.92;1.23;;;;;;;;;;5053920;28;20049;-74
2022/06/17 14:48:49;;;;;;;2.65;1.33;;;;;;;;;;5053782;28;20399;-74
2022/06/17 14:51:33;;;;;;;3.60;1.60;;;;;;;;;;5053870;28;20017;-74
2022/06/17 14:54:00;;;;;;;8.48;1.27;;;;;;;;;;5053470;28;20049;-74
2022/06/17 14:56:31;;;;;;;4.15;1.40;;;;;;;;;;5053692;28;20108;-74
2022/06/17 14:58:58;;;;;;;3.10;1.35;;;;;;;;;;5053553;28;20468;-73
2022/06/17 15:01:35;;;;;;;6.40;1.33;;;;;;;;;;5053427;28;20021;-74
2022/06/17 15:04:04;;;;;;;6.97;1.08;;;;;;;;;;5053591;28;20094;-74
2022/06/17 15:06:32;;;;;;;14.00;1.42;;;;;;;;;;5053369;28;20170;-74
2022/06/17 15:08:58;;;;;;;3.58;1.10;;;;;;;;;;5053436;28;20031;-74
2022/06/17 15:11:28;;;;;;;1.17;1.00;;;;;;;;;;5053333;28;20036;-74
2022/06/17 15:14:10;;;;;;;4.15;1.25;;;;;;;;;;5053296;28;20067;-74